Terminal Aerodrome Forecast
Issued by NWS

Home | Current Version | Previous Version | Text Only | Print | Product List | Glossary On
Versions: 1 2 3 4 5 6 7 8 9 10 11 12 13 14
000
FTUS43 KGLD 232340
TAFMCK
TAF
KMCK 232340Z 2400/2424 34025G35KT P6SM SKC
     FM240100 32012KT P6SM FEW250 WS010/33035KT
     FM241500 33024G34KT P6SM SKC
     FM242300 32014KT P6SM SKC=

USA.gov is the U.S. government's official web portal to all federal, state and local government web resources and services.